Time;durP1;ratioP1;P1;durP2;ratioP2;P2;SDS_P1;SDS_P2;PMS_P1;PMS_P2;Temp;Humidity;BMP_temperature;BMP_pressure;BME280_temperature;BME280_humidity;BME280_pressure;Samples;Min_cycle;Max_cycle;Signal;HPM_P1;HPM_P2
2023/11/01 00:04:22;;;;;;;2.40;1.90;;;;;;;10.53;81.56;98767.96;218079;1255;139725;-72
2023/11/01 00:09:28;;;;;;;2.10;1.80;;;;;;;10.52;81.52;98774.46;218789;1256;139584;-72
2023/11/01 00:14:32;;;;;;;5.40;2.80;;;;;;;10.50;82.09;98782.48;218916;1256;140906;-72
2023/11/01 00:19:38;;;;;;;5.50;2.20;;;;;;;10.48;82.00;98791.85;219153;1257;140070;-72
2023/11/01 00:24:43;;;;;;;3.10;2.20;;;;;;;10.47;82.14;98790.61;218878;1255;139702;-70
2023/11/01 00:29:48;;;;;;;5.00;2.50;;;;;;;10.45;82.28;98799.35;218103;1256;140309;-70
2023/11/01 00:34:54;;;;;;;2.60;2.10;;;;;;;10.45;82.35;98804.20;217763;1259;140630;-72
2023/11/01 00:39:59;;;;;;;2.90;2.50;;;;;;;10.44;82.54;98803.81;217834;1255;141407;-72
2023/11/01 00:45:05;;;;;;;3.80;3.10;;;;;;;10.40;82.50;98811.58;218157;1256;139542;-72
2023/11/01 00:50:10;;;;;;;5.80;4.10;;;;;;;10.35;82.50;98812.14;218942;1255;139703;-71
2023/11/01 00:55:17;;;;;;;4.70;2.70;;;;;;;10.34;82.57;98821.30;218107;1256;140233;-72
2023/11/01 01:00:23;;;;;;;3.30;2.80;;;;;;;10.32;82.55;98831.40;218039;1257;139684;-72
2023/11/01 01:05:27;;;;;;;3.80;3.00;;;;;;;10.28;82.59;98841.81;218434;1254;139615;-71
2023/11/01 01:10:32;;;;;;;3.40;3.00;;;;;;;10.22;82.55;98841.16;217794;1259;140449;-72
2023/11/01 01:15:36;;;;;;;6.40;2.80;;;;;;;10.17;82.37;98848.87;219764;1256;140557;-71
2023/11/01 01:20:41;;;;;;;3.80;2.00;;;;;;;10.09;82.44;98844.27;218641;1255;139565;-70
2023/11/01 01:25:46;;;;;;;3.80;2.50;;;;;;;10.04;82.39;98840.18;218374;1256;541375;-70
2023/11/01 01:30:50;;;;;;;4.80;2.10;;;;;;;10.01;82.33;98847.45;219154;1256;140063;-69
2023/11/01 01:35:55;;;;;;;2.70;2.40;;;;;;;9.97;82.23;98850.98;220515;1254;139642;-72
2023/11/01 01:40:59;;;;;;;6.10;2.40;;;;;;;9.92;82.15;98850.08;220631;1255;139363;-71
2023/11/01 01:46:08;;;;;;;2.20;2.00;;;;;;;9.88;82.22;98849.61;220063;1256;139589;-72
2023/11/01 01:51:12;;;;;;;2.70;1.90;;;;;;;9.85;82.14;98850.70;218506;1256;139865;-72
2023/11/01 01:56:19;;;;;;;6.80;2.50;;;;;;;9.80;82.25;98853.27;219971;1256;140071;-70
2023/11/01 02:01:28;;;;;;;5.10;3.00;;;;;;;9.75;82.25;98855.10;219815;1259;141674;-71
2023/11/01 02:06:47;;;;;;;2.40;2.20;;;;;;;9.68;82.20;98858.30;218359;1256;139271;-70
2023/11/01 02:11:52;;;;;;;2.50;2.20;;;;;;;9.59;82.16;98856.55;218909;1257;139362;-70
2023/11/01 02:16:57;;;;;;;5.00;2.10;;;;;;;9.55;82.48;98856.98;217848;1259;139972;-67
2023/11/01 02:22:01;;;;;;;2.60;1.70;;;;;;;9.50;82.35;98861.19;218988;1257;139742;-70
2023/11/01 02:27:05;;;;;;;2.40;2.20;;;;;;;9.47;82.41;98868.71;218119;1259;139304;-71
2023/11/01 02:32:09;;;;;;;3.00;2.80;;;;;;;9.40;82.52;98871.36;217879;1256;140473;-70
2023/11/01 02:37:13;;;;;;;2.80;2.30;;;;;;;9.34;82.71;98877.34;218901;1259;140248;-71
2023/11/01 02:42:18;;;;;;;4.60;2.40;;;;;;;9.28;82.85;98879.70;218377;1257;140261;-71
2023/11/01 02:47:22;;;;;;;36.50;3.20;;;;;;;9.23;82.96;98882.18;218021;1256;139881;-71
2023/11/01 02:52:28;;;;;;;2.90;2.00;;;;;;;9.19;83.07;98884.54;218753;1256;140055;-71
2023/11/01 02:57:34;;;;;;;1.90;1.70;;;;;;;9.15;83.10;98887.63;218043;1258;139584;-69
2023/11/01 03:02:38;;;;;;;7.70;2.50;;;;;;;9.11;83.01;98891.84;218259;1259;140514;-71
2023/11/01 03:07:44;;;;;;;2.40;2.20;;;;;;;9.08;82.91;98902.85;217708;1256;140037;-70
2023/11/01 03:12:50;;;;;;;1.70;1.60;;;;;;;9.04;82.93;98906.30;218726;1256;249286;-70
2023/11/01 03:17:54;;;;;;;1.90;1.80;;;;;;;9.00;82.81;98913.30;219231;1256;139502;-71
2023/11/01 03:22:57;;;;;;;1.30;1.20;;;;;;;8.96;82.49;98921.27;219389;1256;140661;-70
2023/11/01 03:28:01;;;;;;;1.50;1.40;;;;;;;8.93;82.29;98921.87;218849;1257;139991;-72
2023/11/01 03:33:05;;;;;;;1.30;1.20;;;;;;;8.92;82.33;98922.50;218234;1256;141882;-70
2023/11/01 03:38:09;;;;;;;2.40;1.40;;;;;;;8.92;82.25;98924.98;219445;1256;139685;-71
2023/11/01 03:43:14;;;;;;;1.60;1.50;;;;;;;8.90;82.09;98931.18;220680;1256;140014;-70
2023/11/01 03:48:19;;;;;;;1.80;1.70;;;;;;;8.87;81.81;98939.23;220498;1258;140189;-70
2023/11/01 03:53:24;;;;;;;2.00;1.80;;;;;;;8.85;81.41;98948.23;220500;1256;139865;-70
2023/11/01 03:58:28;;;;;;;2.10;1.30;;;;;;;8.82;81.46;98954.73;220107;1256;140055;-69
2023/11/01 04:03:33;;;;;;;1.90;1.80;;;;;;;8.78;81.43;98960.24;218645;1255;139527;-69
2023/11/01 04:08:39;;;;;;;2.50;1.70;;;;;;;8.75;81.45;98972.09;218333;1259;139992;-70
2023/11/01 04:13:43;;;;;;;2.10;1.50;;;;;;;8.69;81.68;98972.91;218829;1259;139494;-70
2023/11/01 04:18:47;;;;;;;2.00;1.90;;;;;;;8.64;81.59;98979.61;218309;1259;139803;-72
2023/11/01 04:23:52;;;;;;;2.30;2.10;;;;;;;8.56;81.86;98980.27;218439;1257;141219;-72
2023/11/01 04:28:57;;;;;;;2.00;1.30;;;;;;;8.52;81.91;98981.27;218617;1256;140094;-68
2023/11/01 04:34:02;;;;;;;1.80;1.70;;;;;;;8.52;82.05;98989.20;218688;1257;139428;-70
2023/11/01 04:39:10;;;;;;;1.60;1.50;;;;;;;8.53;82.18;98987.20;219264;1259;140349;-70
2023/11/01 04:44:15;;;;;;;3.60;1.40;;;;;;;8.54;82.04;98996.58;218053;1256;139467;-71
2023/11/01 04:49:21;;;;;;;1.30;1.20;;;;;;;8.52;81.71;98996.79;218811;1257;139408;-70
2023/11/01 04:54:24;;;;;;;0.80;0.80;;;;;;;8.50;81.26;99000.80;218237;1257;140662;-70
2023/11/01 04:59:31;;;;;;;0.80;0.70;;;;;;;8.46;80.64;99008.31;218578;1259;139298;-70
2023/11/01 05:04:36;;;;;;;3.20;0.70;;;;;;;8.41;80.45;99008.86;218315;1260;140131;-70
2023/11/01 05:09:41;;;;;;;0.50;0.40;;;;;;;8.40;80.37;99015.48;218792;1256;140758;-70
2023/11/01 05:14:46;;;;;;;0.90;0.90;;;;;;;8.43;80.80;99020.59;218769;1254;139616;-69
2023/11/01 05:19:50;;;;;;;1.60;1.50;;;;;;;8.49;80.89;99032.13;218828;1258;139963;-70
2023/11/01 05:24:55;;;;;;;1.60;1.50;;;;;;;8.54;81.04;99033.73;219802;1259;139582;-70
2023/11/01 05:30:00;;;;;;;3.70;1.40;;;;;;;8.58;81.36;99040.77;218432;1259;140329;-70
2023/11/01 05:35:05;;;;;;;1.90;1.40;;;;;;;8.62;81.22;99048.01;220331;1257;139889;-69
2023/11/01 05:40:16;;;;;;;1.20;1.10;;;;;;;8.65;81.10;99057.00;220540;1258;142302;-70
2023/11/01 05:45:21;;;;;;;0.90;0.90;;;;;;;8.69;80.43;99064.09;219734;1257;140849;-70
2023/11/01 05:50:26;;;;;;;1.30;0.70;;;;;;;8.75;80.44;99079.07;218226;1256;231204;-70
2023/11/01 05:55:31;;;;;;;2.80;2.10;;;;;;;8.81;80.39;99087.16;219569;1257;141517;-70
2023/11/01 06:00:53;;;;;;;4.40;2.10;;;;;;;8.83;80.21;99104.20;218898;1259;139217;-71
2023/11/01 06:05:57;;;;;;;1.30;1.20;;;;;;;8.77;79.48;99107.70;219902;1257;140060;-70
2023/11/01 06:11:03;;;;;;;5.80;3.70;;;;;;;8.69;78.93;99108.88;218490;1258;139580;-68
2023/11/01 06:16:08;;;;;;;5.90;3.20;;;;;;;8.65;78.61;99113.05;219410;1257;139424;-70
2023/11/01 06:21:14;;;;;;;1.80;1.60;;;;;;;8.63;78.30;99115.83;219085;1257;139539;-70
2023/11/01 06:26:19;;;;;;;0.80;0.80;;;;;;;8.65;77.93;99116.89;219163;1258;140418;-70
2023/11/01 06:31:24;;;;;;;0.70;0.60;;;;;;;8.67;77.98;99120.85;218026;1258;140497;-69
2023/11/01 06:36:27;;;;;;;0.50;0.50;;;;;;;8.76;77.94;99122.46;218591;1257;139388;-71
2023/11/01 06:41:35;;;;;;;1.10;0.60;;;;;;;8.90;78.31;99128.94;218178;1258;139746;-71
2023/11/01 06:46:42;;;;;;;0.80;0.70;;;;;;;8.98;78.18;99132.36;218390;1259;141097;-69
2023/11/01 06:51:48;;;;;;;1.90;1.20;;;;;;;9.03;78.18;99136.45;219000;1257;139572;-69
2023/11/01 06:56:53;;;;;;;6.40;5.60;;;;;;;9.13;78.44;99140.14;218360;1258;140034;-70
2023/11/01 07:02:00;;;;;;;6.90;3.80;;;;;;;9.19;78.53;99143.36;218212;1256;139949;-69
2023/11/01 07:07:05;;;;;;;5.20;2.50;;;;;;;9.23;78.56;99147.89;219118;1257;141768;-70
2023/11/01 07:12:12;;;;;;;6.10;3.00;;;;;;;9.29;78.55;99149.39;218483;1259;139431;-69
2023/11/01 07:17:19;;;;;;;6.30;1.70;;;;;;;9.35;78.33;99156.36;218495;1256;139573;-71
2023/11/01 07:22:25;;;;;;;3.90;2.10;;;;;;;9.39;78.47;99151.13;218787;1257;139351;-70
2023/11/01 07:27:30;;;;;;;2.90;2.10;;;;;;;9.53;78.45;99148.55;220575;1254;140381;-68
2023/11/01 07:32:34;;;;;;;1.40;0.80;;;;;;;9.64;78.17;99146.78;219929;1257;142782;-69
2023/11/01 07:37:40;;;;;;;2.50;1.50;;;;;;;9.92;78.23;99147.39;219403;1258;139400;-72
2023/11/01 07:42:46;;;;;;;;;;;;;;;10.17;78.00;99150.20;220101;1257;139939;-71
2023/11/01 07:47:53;;;;;;;1.30;1.10;;;;;;;10.33;77.66;99151.52;220805;1256;127173;-70
2023/11/01 07:53:00;;;;;;;2.70;1.60;;;;;;;10.55;77.68;99149.96;220456;1256;140932;-71
2023/11/01 07:58:09;;;;;;;1.20;1.10;;;;;;;10.71;77.35;99146.67;220349;1258;141302;-71
2023/11/01 08:03:17;;;;;;;3.30;1.80;;;;;;;10.76;77.11;99149.77;218323;1257;141276;-69
2023/11/01 08:08:24;;;;;;;2.00;1.50;;;;;;;10.81;76.87;99158.77;219300;1257;150312;-71
2023/11/01 08:13:28;;;;;;;1.40;1.30;;;;;;;10.90;76.58;99163.58;219017;1260;139500;-70
2023/11/01 08:18:32;;;;;;;3.20;1.30;;;;;;;11.01;76.56;99173.02;219718;1257;139957;-71
2023/11/01 08:23:39;;;;;;;1.90;1.50;;;;;;;11.13;76.61;99171.11;218621;1260;140184;-70
2023/11/01 08:28:45;;;;;;;3.00;1.70;;;;;;;11.25;76.31;99177.16;218115;1256;140079;-70
2023/11/01 08:33:49;;;;;;;5.70;1.70;;;;;;;11.26;76.25;99186.63;217721;1257;139907;-69
2023/11/01 08:38:54;;;;;;;4.10;1.80;;;;;;;11.20;75.82;99192.52;218507;1257;140286;-70
2023/11/01 08:44:02;;;;;;;4.40;1.60;;;;;;;11.11;75.83;99192.05;217601;1260;139706;-69
2023/11/01 08:49:08;;;;;;;1.70;1.60;;;;;;;11.12;76.09;99197.72;218354;1257;140139;-70
2023/11/01 08:54:13;;;;;;;2.20;1.50;;;;;;;11.09;76.11;99205.59;218905;1257;140919;-70
2023/11/01 08:59:21;;;;;;;1.70;1.60;;;;;;;11.02;75.87;99207.75;218554;1257;140553;-69
2023/11/01 09:04:34;;;;;;;3.60;2.10;;;;;;;10.97;75.94;99207.98;218803;1256;140074;-72
2023/11/01 09:09:38;;;;;;;2.10;1.60;;;;;;;10.96;75.93;99214.59;218645;1256;140885;-70
2023/11/01 09:14:44;;;;;;;2.20;2.00;;;;;;;10.89;75.80;99218.06;219387;1255;140364;-69
2023/11/01 09:19:49;;;;;;;4.90;1.80;;;;;;;10.82;75.62;99223.63;217919;1256;231467;-70
2023/11/01 09:24:58;;;;;;;2.10;1.90;;;;;;;10.75;75.62;99229.19;218943;1257;140727;-69
2023/11/01 09:30:04;;;;;;;1.50;1.40;;;;;;;10.69;75.32;99234.46;219989;1256;141968;-69
2023/11/01 09:35:11;;;;;;;2.80;1.80;;;;;;;10.72;75.83;99236.04;219750;1256;140679;-70
2023/11/01 09:40:15;;;;;;;2.90;1.80;;;;;;;10.74;75.27;99243.10;220446;1254;140411;-70
2023/11/01 09:45:20;;;;;;;2.70;1.60;;;;;;;10.78;75.47;99242.35;220532;1256;139716;-70
2023/11/01 09:50:23;;;;;;;6.50;1.40;;;;;;;10.84;75.23;99241.95;220519;1255;140560;-70
2023/11/01 09:55:28;;;;;;;2.00;1.50;;;;;;;10.82;75.27;99240.64;220605;1253;140758;-69
2023/11/01 10:00:33;;;;;;;2.80;2.40;;;;;;;10.89;75.28;99243.25;220684;1256;142267;-68
2023/11/01 10:05:37;;;;;;;2.90;1.50;;;;;;;10.90;74.96;99240.27;220083;1254;141132;-68
2023/11/01 10:10:57;;;;;;;1.50;1.20;;;;;;;10.83;75.00;99245.30;218962;1256;140700;-69
2023/11/01 10:16:08;;;;;;;6.40;1.40;;;;;;;10.72;74.93;99243.61;219198;1255;140087;-69
2023/11/01 10:21:13;;;;;;;2.10;1.20;;;;;;;10.69;75.17;99238.79;219259;1256;140446;-70
2023/11/01 10:26:17;;;;;;;1.20;1.10;;;;;;;10.71;75.58;99244.08;218509;1255;140999;-70
2023/11/01 10:31:20;;;;;;;1.80;1.10;;;;;;;10.66;75.63;99241.84;219435;1254;141265;-71
2023/11/01 10:36:29;;;;;;;3.30;1.50;;;;;;;10.58;75.43;99232.24;218826;1257;140258;-69
2023/11/01 10:41:35;;;;;;;2.60;1.30;;;;;;;10.59;75.70;99231.34;217897;1255;139848;-69
2023/11/01 10:46:41;;;;;;;1.10;1.00;;;;;;;10.71;75.78;99229.25;218810;1256;139831;-69
2023/11/01 10:51:46;;;;;;;1.20;1.10;;;;;;;10.78;75.53;99226.30;218507;1258;139721;-69
2023/11/01 10:56:50;;;;;;;1.40;1.30;;;;;;;10.87;75.50;99222.41;218079;1256;140739;-68
2023/11/01 11:02:16;;;;;;;2.00;1.50;;;;;;;10.95;75.39;99226.63;218550;1256;140215;-71
2023/11/01 11:07:40;;;;;;;2.30;1.70;;;;;;;10.97;74.87;99228.84;218957;1255;142060;-71
2023/11/01 11:12:43;;;;;;;3.00;1.60;;;;;;;11.12;75.41;99228.41;218207;1256;139911;-70
2023/11/01 11:18:05;;;;;;;1.60;1.30;;;;;;;11.26;75.19;99226.05;217972;1256;140101;-72
2023/11/01 11:23:17;;;;;;;2.30;1.90;;;;;;;11.35;75.04;99229.11;218223;1256;139418;-72
2023/11/01 11:28:38;;;;;;;1.80;1.30;;;;;;;11.42;74.77;99229.92;217404;1260;139624;-71
2023/11/01 11:33:48;;;;;;;1.40;1.30;;;;;;;11.49;74.66;99230.81;220036;1257;141174;-71
2023/11/01 11:39:05;;;;;;;3.90;1.70;;;;;;;11.57;74.73;99228.82;219324;1257;140310;-68
2023/11/01 11:44:19;;;;;;;2.10;1.50;;;;;;;11.67;74.74;99225.57;220298;1257;140636;-69
2023/11/01 11:49:37;;;;;;;4.10;1.40;;;;;;;11.68;74.35;99222.16;220463;1256;140053;-70
2023/11/01 11:54:47;;;;;;;1.90;1.60;;;;;;;11.67;74.50;99213.77;220513;1258;140251;-70
2023/11/01 12:00:07;;;;;;;2.30;0.90;;;;;;;11.73;74.54;99210.30;220062;1256;140367;-69
2023/11/01 12:05:12;;;;;;;3.30;1.30;;;;;;;11.74;74.27;99205.89;220191;1256;140162;-69
2023/11/01 12:10:18;;;;;;;2.00;1.70;;;;;;;11.79;74.50;99208.29;218751;1256;141020;-68
2023/11/01 12:15:21;;;;;;;2.70;1.70;;;;;;;11.97;75.00;99203.02;219569;1256;141973;-69
2023/11/01 12:20:34;;;;;;;1.40;1.30;;;;;;;12.12;75.02;99193.73;218259;1256;140062;-67
2023/11/01 12:25:38;;;;;;;2.40;1.70;;;;;;;12.17;74.74;99191.80;218538;1256;139784;-71
2023/11/01 12:30:43;;;;;;;1.50;1.30;;;;;;;12.15;74.74;99190.87;218659;1256;141496;-70
2023/11/01 12:35:48;;;;;;;4.30;1.90;;;;;;;12.17;74.97;99192.00;218965;1257;141442;-69
2023/11/01 12:40:59;;;;;;;2.60;2.00;;;;;;;12.18;75.14;99191.91;218410;1258;140020;-69
2023/11/01 12:46:09;;;;;;;4.60;2.50;;;;;;;12.27;75.37;99192.47;218148;1257;139569;-69
2023/11/01 12:51:16;;;;;;;2.80;2.50;;;;;;;12.29;75.49;99189.92;218931;1256;140909;-69
2023/11/01 12:56:23;;;;;;;2.20;2.00;;;;;;;12.35;75.56;99188.20;217886;1259;140284;-69
2023/11/01 13:01:32;;;;;;;2.50;1.80;;;;;;;12.42;75.61;99185.84;218138;1256;139864;-70
2023/11/01 13:06:40;;;;;;;4.10;2.30;;;;;;;12.57;75.61;99175.30;218127;1256;140584;-70
2023/11/01 13:11:57;;;;;;;4.10;2.20;;;;;;;12.67;75.57;99168.88;217760;1256;140558;-70
2023/11/01 13:17:25;;;;;;;4.90;3.00;;;;;;;12.87;75.70;99177.66;217906;1255;139683;-70
2023/11/01 13:22:31;;;;;;;;;;;;;;;13.03;75.39;99179.64;217276;1256;574723;-68
2023/11/01 13:27:50;;;;;;;5.30;3.00;;;;;;;13.06;75.13;99181.95;218819;1255;126601;-70
2023/11/01 13:32:54;;;;;;;4.30;2.20;;;;;;;13.00;74.98;99187.50;219242;1255;140634;-71
2023/11/01 13:38:02;;;;;;;3.20;2.00;;;;;;;12.95;75.01;99185.77;220426;1255;140317;-71
2023/11/01 13:43:33;;;;;;;2.90;2.50;;;;;;;12.81;75.09;99183.95;220619;1255;142045;-72
2023/11/01 13:49:07;;;;;;;5.10;2.70;;;;;;;12.74;74.96;99180.08;220233;1256;245681;-70
2023/11/01 13:54:16;;;;;;;3.70;2.90;;;;;;;12.71;75.15;99185.27;220518;1255;139458;-72
2023/11/01 13:59:30;;;;;;;3.80;3.40;;;;;;;12.66;75.33;99179.89;220689;1254;139783;-69
2023/11/01 14:04:40;;;;;;;6.00;3.40;;;;;;;12.58;75.37;99174.77;219645;1256;225171;-70
2023/11/01 14:09:44;;;;;;;7.40;3.70;;;;;;;12.46;75.40;99174.10;217970;1255;140011;-70
2023/11/01 14:14:49;;;;;;;5.90;4.10;;;;;;;12.39;75.72;99167.90;218743;1255;140504;-68
2023/11/01 14:19:54;;;;;;;4.70;3.70;;;;;;;12.34;76.39;99166.00;218098;1258;142058;-71
2023/11/01 14:25:01;;;;;;;6.10;3.80;;;;;;;12.18;76.13;99160.54;218457;1258;139888;-70
2023/11/01 14:30:17;;;;;;;4.40;3.50;;;;;;;12.01;76.26;99155.34;218676;1255;139596;-72
2023/11/01 14:35:22;;;;;;;7.20;3.60;;;;;;;11.87;76.43;99149.55;218183;1259;139633;-72
2023/11/01 14:40:30;;;;;;;4.90;3.50;;;;;;;11.76;76.79;99148.29;218617;1255;140134;-69
2023/11/01 14:45:36;;;;;;;6.80;3.40;;;;;;;11.64;76.88;99149.89;218316;1256;140141;-68
2023/11/01 14:50:46;;;;;;;3.70;3.30;;;;;;;11.49;77.02;99149.45;218405;1256;139484;-70
2023/11/01 14:56:08;;;;;;;3.80;3.20;;;;;;;11.19;76.66;99144.06;218870;1255;140448;-72
2023/11/01 15:01:13;;;;;;;7.10;5.40;;;;;;;10.85;76.74;99138.99;218083;1257;139908;-70
2023/11/01 15:06:17;;;;;;;7.40;5.10;;;;;;;10.66;77.44;99136.86;217746;1257;139711;-70
2023/11/01 15:11:22;;;;;;;19.90;6.20;;;;;;;10.42;77.13;99136.16;217967;1256;139616;-72
2023/11/01 15:16:30;;;;;;;5.80;4.00;;;;;;;10.19;77.79;99138.66;218629;1257;139522;-71
2023/11/01 15:21:34;;;;;;;5.70;3.00;;;;;;;10.01;77.99;99135.23;218207;1256;140908;-71
2023/11/01 15:26:37;;;;;;;12.40;5.00;;;;;;;9.86;78.09;99137.77;218369;1256;139618;-70
2023/11/01 15:31:42;;;;;;;38.30;6.70;;;;;;;9.70;78.22;99140.54;218556;1254;139482;-71
2023/11/01 15:36:54;;;;;;;5.90;3.70;;;;;;;9.52;78.30;99136.94;218596;1256;140735;-72
2023/11/01 15:42:04;;;;;;;5.30;3.50;;;;;;;9.27;78.12;99136.06;219606;1254;139487;-68
2023/11/01 15:47:11;;;;;;;5.40;4.80;;;;;;;9.02;78.07;99140.64;219528;1255;139775;-72
2023/11/01 15:52:18;;;;;;;16.40;7.00;;;;;;;8.82;78.64;99144.37;218899;1258;139671;-67
2023/11/01 15:57:25;;;;;;;15.00;6.90;;;;;;;8.67;78.69;99144.50;218965;1256;140749;-69
2023/11/01 16:02:34;;;;;;;20.20;7.90;;;;;;;8.58;78.88;99142.09;218844;1256;140528;-68
2023/11/01 16:07:43;;;;;;;20.10;8.30;;;;;;;8.40;78.63;99137.44;219145;1255;141003;-68
2023/11/01 16:12:57;;;;;;;14.50;8.50;;;;;;;8.23;78.54;99134.51;219670;1255;141658;-69
2023/11/01 16:18:10;;;;;;;14.90;9.60;;;;;;;8.03;78.91;99137.00;218505;1258;140857;-68
2023/11/01 16:23:16;;;;;;;17.70;11.30;;;;;;;7.92;79.24;99138.77;219375;1253;139793;-69
2023/11/01 16:28:24;;;;;;;18.50;12.40;;;;;;;7.79;79.18;99136.11;218292;1256;140610;-68
2023/11/01 16:33:33;;;;;;;11.40;8.90;;;;;;;7.66;79.55;99143.02;218315;1256;140709;-69
2023/11/01 16:38:44;;;;;;;13.30;9.50;;;;;;;7.47;79.28;99139.33;218912;1256;139534;-69
2023/11/01 16:43:53;;;;;;;16.80;10.00;;;;;;;7.31;79.46;99134.70;218035;1256;141412;-68
2023/11/01 16:48:59;;;;;;;12.50;8.90;;;;;;;7.16;79.63;99134.53;218036;1255;140727;-69
2023/11/01 16:54:14;;;;;;;16.20;9.90;;;;;;;7.03;80.21;99132.43;217887;1259;139403;-70
2023/11/01 16:59:44;;;;;;;14.20;8.40;;;;;;;6.93;80.29;99130.21;218247;1256;139523;-72
2023/11/01 17:05:10;;;;;;;17.10;10.90;;;;;;;6.82;80.46;99122.54;218132;1256;140904;-72
2023/11/01 17:10:19;;;;;;;13.20;8.80;;;;;;;6.73;81.01;99117.81;217775;1256;139817;-71
2023/11/01 17:15:30;;;;;;;15.20;10.50;;;;;;;6.61;81.03;99120.71;219479;1255;140496;-71
2023/11/01 17:20:38;;;;;;;26.80;10.50;;;;;;;6.53;81.02;99118.12;218326;1256;140033;-70
2023/11/01 17:25:49;;;;;;;21.00;10.10;;;;;;;6.45;81.10;99115.77;218390;1259;146057;-70
2023/11/01 17:30:59;;;;;;;16.80;11.80;;;;;;;6.39;81.35;99117.34;219001;1255;246353;-68
2023/11/01 17:36:20;;;;;;;19.40;14.00;;;;;;;6.41;81.93;99115.73;218150;1255;140566;-70
2023/11/01 17:41:51;;;;;;;20.20;15.40;;;;;;;6.46;82.65;99113.20;219969;1254;139918;-69
2023/11/01 17:47:05;;;;;;;18.30;12.40;;;;;;;6.52;82.88;99110.77;218034;1257;140019;-69
2023/11/01 17:52:23;;;;;;;26.50;14.30;;;;;;;6.57;83.51;99109.16;219275;1255;141034;-68
2023/11/01 17:57:32;;;;;;;26.90;16.80;;;;;;;6.63;83.72;99101.87;218832;1255;139564;-69
2023/11/01 18:02:55;;;;;;;19.80;15.90;;;;;;;6.67;83.78;99094.08;219750;1255;139702;-69
2023/11/01 18:08:09;;;;;;;18.70;13.10;;;;;;;6.71;84.29;99094.35;218818;1256;139538;-69
2023/11/01 18:13:24;;;;;;;23.90;15.40;;;;;;;6.79;84.82;99089.41;218193;1256;139792;-67
2023/11/01 18:18:55;;;;;;;23.60;12.70;;;;;;;6.85;85.08;99091.62;218811;1255;140328;-69
2023/11/01 18:24:01;;;;;;;24.10;14.10;;;;;;;6.89;85.35;99093.84;217976;1259;139778;-71
2023/11/01 18:29:07;;;;;;;23.10;14.30;;;;;;;6.90;85.43;99089.38;217707;1259;139605;-70
2023/11/01 18:34:20;;;;;;;22.30;14.10;;;;;;;6.93;85.78;99085.11;218080;1259;141017;-71
2023/11/01 18:39:27;;;;;;;19.80;12.70;;;;;;;6.93;86.11;99084.69;218807;1256;140293;-71
2023/11/01 18:44:43;;;;;;;23.40;15.40;;;;;;;6.95;86.35;99081.73;218060;1256;139907;-71
2023/11/01 18:49:54;;;;;;;20.50;11.60;;;;;;;6.97;86.43;99084.22;218863;1255;140651;-72
2023/11/01 18:54:58;;;;;;;26.30;16.20;;;;;;;6.97;86.29;99077.27;218068;1259;139308;-71
2023/11/01 19:00:11;;;;;;;19.50;14.20;;;;;;;6.95;86.58;99072.92;218296;1256;142049;-71
2023/11/01 19:05:18;;;;;;;21.70;16.70;;;;;;;6.92;86.45;99074.44;218748;1256;139484;-71
2023/11/01 19:10:31;;;;;;;21.30;14.60;;;;;;;6.87;86.34;99072.39;219370;1256;139942;-72
2023/11/01 19:15:38;;;;;;;20.80;14.10;;;;;;;6.81;85.94;99073.98;218052;1256;139940;-72
2023/11/01 19:20:46;;;;;;;17.10;11.40;;;;;;;6.75;85.87;99074.63;218232;1256;140635;-69
2023/11/01 19:25:51;;;;;;;17.40;11.40;;;;;;;6.71;86.36;99075.71;218416;1258;140025;-70
2023/11/01 19:30:57;;;;;;;19.30;11.80;;;;;;;6.68;86.53;99068.36;218960;1259;140442;-70
2023/11/01 19:36:03;;;;;;;20.50;13.10;;;;;;;6.65;86.70;99065.02;219854;1256;140003;-70
2023/11/01 19:41:20;;;;;;;25.10;15.10;;;;;;;6.63;86.65;99065.07;219786;1258;139700;-70
2023/11/01 19:46:25;;;;;;;22.60;15.00;;;;;;;6.62;86.57;99059.80;220507;1256;140875;-70
2023/11/01 19:51:29;;;;;;;14.90;11.40;;;;;;;6.61;86.85;99060.29;220107;1256;139834;-70
2023/11/01 19:56:36;;;;;;;20.50;13.50;;;;;;;6.59;86.60;99052.18;218754;1256;139867;-70
2023/11/01 20:01:41;;;;;;;20.20;13.00;;;;;;;6.57;87.26;99046.05;218238;1256;139376;-69
2023/11/01 20:06:50;;;;;;;17.60;12.70;;;;;;;6.54;87.07;99037.54;219235;1256;143326;-70
2023/11/01 20:11:56;;;;;;;15.60;11.70;;;;;;;6.52;87.12;99033.08;218559;1255;139875;-69
2023/11/01 20:17:07;;;;;;;20.00;14.50;;;;;;;6.51;87.60;99026.77;218127;1256;140840;-69
2023/11/01 20:22:19;;;;;;;24.60;15.20;;;;;;;6.51;87.65;99017.98;218083;1254;140796;-69
2023/11/01 20:27:27;;;;;;;16.90;12.60;;;;;;;6.50;87.73;99021.17;217618;1256;139419;-69
2023/11/01 20:32:35;;;;;;;19.60;15.40;;;;;;;6.48;87.80;99021.12;217947;1259;140385;-69
2023/11/01 20:37:41;;;;;;;23.70;12.50;;;;;;;6.44;88.09;99017.79;218145;1258;139798;-70
2023/11/01 20:42:48;;;;;;;17.70;11.30;;;;;;;6.40;88.17;99018.43;218234;1256;140479;-68
2023/11/01 20:47:56;;;;;;;19.50;12.60;;;;;;;6.37;88.52;99013.39;218115;1256;139439;-69
2023/11/01 20:53:02;;;;;;;18.70;11.80;;;;;;;6.36;88.64;99005.41;217857;1256;141639;-70
2023/11/01 20:58:09;;;;;;;21.20;12.80;;;;;;;6.36;89.08;98997.48;218504;1256;139712;-68
2023/11/01 21:03:14;;;;;;;20.90;14.10;;;;;;;6.36;89.01;98991.45;218656;1257;139893;-69
2023/11/01 21:08:19;;;;;;;21.50;12.60;;;;;;;6.39;89.32;98985.52;219734;1256;141290;-70
2023/11/01 21:13:24;;;;;;;21.80;14.50;;;;;;;6.41;89.07;98980.23;218331;1257;140209;-70
2023/11/01 21:18:31;;;;;;;18.60;11.40;;;;;;;6.44;89.70;98974.58;219111;1255;141587;-69
2023/11/01 21:23:36;;;;;;;18.20;11.60;;;;;;;6.45;89.56;98976.19;219691;1256;140596;-70
2023/11/01 21:28:41;;;;;;;17.50;11.20;;;;;;;6.45;89.45;98975.55;217959;1258;139784;-68
2023/11/01 21:33:47;;;;;;;15.20;10.20;;;;;;;6.43;89.65;98977.48;220373;1256;140866;-70
2023/11/01 21:38:56;;;;;;;19.70;12.20;;;;;;;6.42;89.68;98977.04;218928;1256;139637;-69
2023/11/01 21:44:01;;;;;;;21.30;14.00;;;;;;;6.43;89.52;98976.21;220439;1255;139983;-70
2023/11/01 21:49:18;;;;;;;25.00;14.10;;;;;;;6.43;89.74;98973.93;218804;1259;139846;-69
2023/11/01 21:54:24;;;;;;;22.30;14.40;;;;;;;6.45;90.12;98971.42;218513;1259;139672;-69
2023/11/01 21:59:32;;;;;;;21.10;13.90;;;;;;;6.46;89.89;98967.22;219138;1257;140619;-69
2023/11/01 22:04:42;;;;;;;19.00;13.00;;;;;;;6.45;89.82;98961.21;219267;1257;140618;-70
2023/11/01 22:09:50;;;;;;;22.10;14.50;;;;;;;6.44;90.14;98953.80;218492;1259;141181;-69
2023/11/01 22:14:55;;;;;;;17.80;14.10;;;;;;;6.42;90.04;98952.73;218877;1255;139873;-67
2023/11/01 22:20:03;;;;;;;22.90;14.10;;;;;;;6.39;89.96;98946.79;218576;1256;139727;-69
2023/11/01 22:25:09;;;;;;;19.80;14.80;;;;;;;6.35;89.86;98951.67;218024;1256;140250;-69
2023/11/01 22:30:15;;;;;;;20.70;14.10;;;;;;;6.31;89.85;98945.26;218679;1257;139748;-69
2023/11/01 22:35:48;;;;;;;24.90;15.10;;;;;;;6.28;90.21;98944.98;217808;1256;140815;-69
2023/11/01 22:41:05;;;;;;;20.30;14.00;;;;;;;6.26;90.09;98948.18;218137;1256;139837;-69
2023/11/01 22:46:10;;;;;;;21.30;15.60;;;;;;;6.24;90.20;98949.30;219046;1256;139738;-69
2023/11/01 22:51:16;;;;;;;23.60;14.60;;;;;;;6.21;90.56;98944.98;218306;1259;140005;-69
2023/11/01 22:56:21;;;;;;;17.40;13.80;;;;;;;6.18;90.49;98935.86;218907;1259;139656;-69
2023/11/01 23:01:27;;;;;;;18.60;13.40;;;;;;;6.16;90.53;98930.19;218340;1255;139564;-68
2023/11/01 23:06:31;;;;;;;19.10;14.20;;;;;;;6.15;91.01;98926.46;218441;1255;140522;-70
2023/11/01 23:11:36;;;;;;;22.60;15.00;;;;;;;6.16;90.67;98921.94;219685;1256;141445;-69
2023/11/01 23:16:41;;;;;;;21.30;13.30;;;;;;;6.16;90.94;98921.84;218500;1258;139613;-69
2023/11/01 23:21:47;;;;;;;20.50;12.30;;;;;;;6.19;90.85;98918.20;219142;1259;139712;-69
2023/11/01 23:26:53;;;;;;;18.90;12.50;;;;;;;6.20;91.15;98910.61;218060;1257;141055;-69
2023/11/01 23:32:09;;;;;;;20.90;14.30;;;;;;;6.20;90.99;98908.65;220219;1258;151496;-69
2023/11/01 23:37:28;;;;;;;26.30;14.30;;;;;;;6.19;91.02;98913.59;220303;1257;141483;-70